Time;durP1;ratioP1;P1;durP2;ratioP2;P2;SDS_P1;SDS_P2;PMS_P1;PMS_P2;Temp;Humidity;BMP_temperature;BMP_pressure;BME280_temperature;BME280_humidity;BME280_pressure;Samples;Min_cycle;Max_cycle;Signal;HPM_P1;HPM_P2
2022/10/15 00:01:06;;;;;;;93.18;31.52;;;;;;;;;;8398279;28;20049;-86
2022/10/15 00:05:09;;;;;;;94.38;32.55;;;;;;;;;;8398026;28;20041;-85
2022/10/15 00:09:12;;;;;;;106.10;34.97;;;;;;;;;;8397937;28;20060;-87
2022/10/15 00:13:15;;;;;;;108.43;32.45;;;;;;;;;;8398161;28;20460;-85
2022/10/15 00:17:18;;;;;;;115.22;33.90;;;;;;;;;;8397588;28;20050;-87
2022/10/15 00:21:21;;;;;;;97.57;31.55;;;;;;;;;;8397549;28;20483;-86
2022/10/15 00:25:25;;;;;;;108.30;30.77;;;;;;;;;;8397666;28;20098;-87
2022/10/15 00:29:27;;;;;;;112.18;33.13;;;;;;;;;;8397825;28;20402;-87
2022/10/15 00:33:30;;;;;;;101.07;30.42;;;;;;;;;;8397226;28;20434;-86
2022/10/15 00:37:32;;;;;;;90.03;28.30;;;;;;;;;;8396887;28;20041;-85
2022/10/15 00:41:40;;;;;;;102.20;29.73;;;;;;;;;;8396879;28;20044;-85
2022/10/15 00:45:43;;;;;;;101.65;31.42;;;;;;;;;;8396915;28;20055;-86
2022/10/15 00:49:49;;;;;;;100.47;31.20;;;;;;;;;;8385614;28;20136;-85
2022/10/15 00:53:52;;;;;;;101.43;30.15;;;;;;;;;;8363550;28;20044;-86
2022/10/15 00:57:57;;;;;;;102.22;29.63;;;;;;;;;;8363366;28;20107;-86
2022/10/15 01:02:01;;;;;;;112.78;32.42;;;;;;;;;;8363325;28;20506;-86
2022/10/15 01:06:04;;;;;;;99.68;29.02;;;;;;;;;;8363112;28;20461;-87
2022/10/15 01:10:08;;;;;;;102.50;31.10;;;;;;;;;;8362960;28;20064;-86
2022/10/15 01:14:28;;;;;;;100.03;32.10;;;;;;;;;;8362851;28;20047;-87
2022/10/15 01:18:36;;;;;;;95.50;30.42;;;;;;;;;;8362760;28;20493;-86
2022/10/15 01:22:54;;;;;;;97.05;28.73;;;;;;;;;;8362792;28;20052;-85
2022/10/15 01:27:35;;;;;;;102.05;27.65;;;;;;;;;;8362579;28;20119;-85
2022/10/15 01:31:43;;;;;;;107.05;28.45;;;;;;;;;;8342739;28;20059;-85
2022/10/15 01:35:50;;;;;;;91.18;26.40;;;;;;;;;;8344685;28;20083;-85
2022/10/15 01:39:57;;;;;;;95.78;27.50;;;;;;;;;;8362552;28;20499;-85
2022/10/15 01:44:03;;;;;;;108.82;30.83;;;;;;;;;;8362546;28;20492;-85
2022/10/15 01:48:10;;;;;;;111.70;30.27;;;;;;;;;;8362047;28;20067;-85
2022/10/15 01:52:15;;;;;;;118.63;29.92;;;;;;;;;;8362415;28;20056;-85
2022/10/15 01:56:21;;;;;;;133.13;31.98;;;;;;;;;;8362169;28;20049;-86
2022/10/15 02:00:23;;;;;;;139.82;32.55;;;;;;;;;;8362202;28;20045;-85
2022/10/15 02:04:29;;;;;;;132.00;30.83;;;;;;;;;;8344785;28;20053;-85
2022/10/15 02:08:38;;;;;;;127.72;33.15;;;;;;;;;;8364735;28;20041;-86
2022/10/15 02:12:53;;;;;;;137.80;32.28;;;;;;;;;;8368744;28;20055;-86
2022/10/15 02:17:02;;;;;;;145.85;32.45;;;;;;;;;;8368295;28;20508;-85
2022/10/15 02:21:10;;;;;;;157.80;33.70;;;;;;;;;;8368337;28;20041;-85
2022/10/15 02:25:18;;;;;;;149.25;33.35;;;;;;;;;;8368096;28;20044;-85
2022/10/15 02:29:23;;;;;;;163.13;36.45;;;;;;;;;;8368059;28;20048;-85
2022/10/15 02:33:27;;;;;;;148.38;33.92;;;;;;;;;;8367867;28;20094;-85
2022/10/15 02:37:32;;;;;;;148.20;35.70;;;;;;;;;;8367750;28;20453;-85
2022/10/15 02:41:36;;;;;;;172.15;38.80;;;;;;;;;;8369260;28;20666;-86
2022/10/15 02:45:38;;;;;;;162.00;35.30;;;;;;;;;;8367617;28;20077;-86
2022/10/15 02:49:41;;;;;;;149.50;32.88;;;;;;;;;;8367431;28;20064;-86
2022/10/15 02:53:45;;;;;;;175.75;36.92;;;;;;;;;;8367278;28;20503;-85
2022/10/15 02:57:47;;;;;;;160.27;35.70;;;;;;;;;;8367058;28;20048;-85
2022/10/15 03:01:49;;;;;;;167.20;35.35;;;;;;;;;;8366998;28;20044;-86
2022/10/15 03:05:52;;;;;;;149.13;34.63;;;;;;;;;;8367100;28;20048;-85
2022/10/15 03:09:56;;;;;;;157.45;36.42;;;;;;;;;;8366768;28;20064;-84
2022/10/15 03:13:58;;;;;;;167.32;44.25;;;;;;;;;;8367026;28;20044;-86
2022/10/15 03:18:00;;;;;;;168.18;37.40;;;;;;;;;;8366463;28;20484;-86
2022/10/15 03:22:03;;;;;;;128.45;33.55;;;;;;;;;;8365717;28;20416;-85
2022/10/15 03:26:07;;;;;;;162.20;39.47;;;;;;;;;;8366326;28;20045;-85
2022/10/15 03:30:10;;;;;;;161.25;42.58;;;;;;;;;;8366218;28;20052;-85
2022/10/15 03:34:13;;;;;;;147.63;37.92;;;;;;;;;;8297180;28;20061;-85
2022/10/15 03:38:15;;;;;;;178.93;41.88;;;;;;;;;;8365832;28;20048;-85
2022/10/15 03:42:19;;;;;;;170.43;40.58;;;;;;;;;;8365897;28;20099;-85
2022/10/15 03:46:21;;;;;;;185.02;42.92;;;;;;;;;;8365647;28;20053;-86
2022/10/15 03:50:23;;;;;;;195.98;49.08;;;;;;;;;;8365568;28;20084;-85
2022/10/15 03:54:26;;;;;;;225.23;57.97;;;;;;;;;;8365809;28;20049;-86
2022/10/15 03:58:30;;;;;;;297.30;73.85;;;;;;;;;;8365293;28;20065;-86
2022/10/15 04:02:32;;;;;;;260.63;61.88;;;;;;;;;;8365213;28;20381;-86
2022/10/15 04:06:35;;;;;;;231.60;59.58;;;;;;;;;;8355441;28;20041;-88
2022/10/15 04:10:37;;;;;;;174.50;40.28;;;;;;;;;;8364572;28;20055;-88
2022/10/15 04:14:41;;;;;;;151.20;35.05;;;;;;;;;;8364628;28;20124;-86
2022/10/15 04:18:43;;;;;;;160.77;36.65;;;;;;;;;;8364351;28;20626;-87
2022/10/15 04:22:46;;;;;;;130.70;33.67;;;;;;;;;;8364250;28;20072;-85
2022/10/15 04:26:48;;;;;;;172.32;44.67;;;;;;;;;;8364202;28;20056;-86
2022/10/15 04:30:55;;;;;;;176.50;45.35;;;;;;;;;;8363609;28;20041;-85
2022/10/15 04:34:58;;;;;;;192.75;49.17;;;;;;;;;;8363863;28;20052;-87
2022/10/15 04:39:00;;;;;;;178.25;44.47;;;;;;;;;;8363769;28;20053;-85
2022/10/15 04:43:03;;;;;;;122.93;33.08;;;;;;;;;;8363543;28;20045;-87
2022/10/15 04:47:07;;;;;;;137.02;35.28;;;;;;;;;;8363679;28;20120;-86
2022/10/15 04:51:12;;;;;;;150.07;40.05;;;;;;;;;;8361298;28;20064;-84
2022/10/15 04:55:15;;;;;;;156.45;40.80;;;;;;;;;;8361659;28;20124;-87
2022/10/15 04:59:17;;;;;;;150.68;39.00;;;;;;;;;;8361480;28;20052;-85
2022/10/15 05:03:21;;;;;;;191.15;44.78;;;;;;;;;;8363655;28;20060;-85
2022/10/15 05:07:24;;;;;;;172.13;42.08;;;;;;;;;;8357514;28;20488;-84
2022/10/15 05:11:27;;;;;;;136.35;34.65;;;;;;;;;;8361978;28;20456;-85
2022/10/15 05:15:30;;;;;;;141.10;37.50;;;;;;;;;;8362552;28;20126;-84
2022/10/15 05:19:33;;;;;;;163.93;41.35;;;;;;;;;;8362477;28;20041;-86
2022/10/15 05:23:37;;;;;;;175.63;41.13;;;;;;;;;;8362733;28;20052;-87
2022/10/15 05:27:39;;;;;;;187.35;48.97;;;;;;;;;;8362646;28;20049;-85
2022/10/15 05:31:46;;;;;;;202.32;53.97;;;;;;;;;;8362249;28;20072;-87
2022/10/15 05:35:52;;;;;;;196.70;57.20;;;;;;;;;;8360818;28;20037;-86
2022/10/15 05:39:54;;;;;;;177.30;46.30;;;;;;;;;;8362064;28;20056;-85
2022/10/15 05:43:57;;;;;;;171.20;45.05;;;;;;;;;;8361388;28;20123;-84
2022/10/15 05:48:00;;;;;;;163.43;43.33;;;;;;;;;;8361885;28;20040;-85
2022/10/15 05:52:04;;;;;;;138.68;41.85;;;;;;;;;;8361789;28;20068;-87
2022/10/15 05:56:08;;;;;;;139.38;40.33;;;;;;;;;;8362337;28;20534;-86
2022/10/15 06:00:11;;;;;;;114.55;36.47;;;;;;;;;;8361908;28;20052;-88
2022/10/15 06:04:15;;;;;;;112.22;34.15;;;;;;;;;;8360566;28;20572;-89
2022/10/15 06:08:20;;;;;;;119.60;37.40;;;;;;;;;;8361871;28;20440;-85
2022/10/15 06:12:23;;;;;;;94.72;35.40;;;;;;;;;;8361724;28;20049;-88
2022/10/15 06:16:26;;;;;;;66.65;28.63;;;;;;;;;;8361711;28;20088;-87
2022/10/15 06:20:28;;;;;;;60.65;27.40;;;;;;;;;;8362069;28;20071;-85
2022/10/15 06:24:32;;;;;;;62.90;25.75;;;;;;;;;;8361294;28;20485;-86
2022/10/15 06:28:36;;;;;;;56.95;26.00;;;;;;;;;;8362639;28;20045;-85
2022/10/15 06:32:38;;;;;;;64.18;28.45;;;;;;;;;;8358170;28;20473;-86
2022/10/15 06:36:41;;;;;;;65.97;28.60;;;;;;;;;;8361419;28;20045;-86
2022/10/15 06:40:45;;;;;;;54.08;24.88;;;;;;;;;;8361578;28;20044;-86
2022/10/15 06:44:47;;;;;;;51.75;25.75;;;;;;;;;;8361165;28;20053;-87
2022/10/15 06:48:50;;;;;;;47.10;25.55;;;;;;;;;;8361171;28;20057;-88
2022/10/15 06:52:53;;;;;;;45.03;24.48;;;;;;;;;;8361922;28;20511;-88
2022/10/15 06:56:57;;;;;;;43.08;21.67;;;;;;;;;;8367472;28;20428;-85
2022/10/15 07:01:03;;;;;;;36.45;18.95;;;;;;;;;;8367022;28;20045;-87
2022/10/15 07:05:06;;;;;;;35.58;18.63;;;;;;;;;;8366803;28;20059;-86
2022/10/15 07:09:09;;;;;;;29.17;17.48;;;;;;;;;;8366851;28;20041;-87
2022/10/15 07:13:13;;;;;;;30.45;18.30;;;;;;;;;;8367094;28;20111;-88
2022/10/15 07:17:15;;;;;;;33.08;18.38;;;;;;;;;;8353008;28;20107;-87
2022/10/15 07:21:24;;;;;;;34.03;18.35;;;;;;;;;;8366233;28;20041;-86
2022/10/15 07:25:28;;;;;;;33.72;18.80;;;;;;;;;;8362649;28;20045;-88
2022/10/15 07:29:32;;;;;;;29.88;16.73;;;;;;;;;;8365526;28;20057;-88
2022/10/15 07:33:35;;;;;;;31.25;16.15;;;;;;;;;;8365126;28;20471;-89
2022/10/15 07:37:40;;;;;;;22.95;14.18;;;;;;;;;;8365127;28;20049;-90
2022/10/15 07:41:43;;;;;;;21.10;13.57;;;;;;;;;;8364618;28;20099;-89
2022/10/15 07:45:49;;;;;;;21.80;12.02;;;;;;;;;;8356837;28;20032;-89
2022/10/15 07:49:52;;;;;;;22.50;14.30;;;;;;;;;;8364367;28;20447;-88
2022/10/15 07:53:54;;;;;;;20.92;12.40;;;;;;;;;;8365549;28;20468;-88
2022/10/15 07:57:58;;;;;;;18.80;13.15;;;;;;;;;;8363919;28;20103;-88
2022/10/15 08:02:02;;;;;;;18.08;11.80;;;;;;;;;;8365162;28;20072;-88
2022/10/15 08:06:06;;;;;;;21.70;13.10;;;;;;;;;;8364353;28;20048;-89
2022/10/15 08:10:10;;;;;;;17.55;12.13;;;;;;;;;;8365170;28;20052;-89
2022/10/15 08:14:13;;;;;;;17.23;11.80;;;;;;;;;;8364894;28;20041;-88
2022/10/15 08:18:17;;;;;;;17.65;11.85;;;;;;;;;;8364870;28;20049;-88
2022/10/15 08:22:21;;;;;;;14.95;11.00;;;;;;;;;;8364465;28;20044;-89
2022/10/15 08:26:25;;;;;;;16.88;9.60;;;;;;;;;;8364363;28;20044;-88
2022/10/15 08:30:28;;;;;;;17.05;11.13;;;;;;;;;;8364369;28;20079;-88
2022/10/15 08:34:32;;;;;;;18.00;11.43;;;;;;;;;;8350103;28;20091;-88
2022/10/15 08:38:35;;;;;;;16.70;11.52;;;;;;;;;;8364125;28;20045;-88
2022/10/15 08:42:40;;;;;;;19.13;11.48;;;;;;;;;;8364025;28;20067;-88
2022/10/15 08:46:46;;;;;;;17.85;11.02;;;;;;;;;;8363831;28;20044;-88
2022/10/15 08:50:58;;;;;;;14.35;10.52;;;;;;;;;;8363643;28;20064;-88
2022/10/15 08:55:01;;;;;;;;;;;;;;;;;;8346024;28;20120;-89
2022/10/15 08:59:16;;;;;;;18.63;11.23;;;;;;;;;;8363537;28;19920;-88
2022/10/15 09:03:33;;;;;;;24.33;14.43;;;;;;;;;;8363470;28;20045;-88
2022/10/15 09:07:42;;;;;;;17.77;11.73;;;;;;;;;;8363313;28;20048;-88
2022/10/15 09:11:55;;;;;;;20.13;10.90;;;;;;;;;;8360010;28;20064;-88
2022/10/15 09:16:01;;;;;;;26.77;17.52;;;;;;;;;;8352716;28;20041;-87
2022/10/15 09:20:07;;;;;;;18.20;13.18;;;;;;;;;;8362167;28;20040;-89
2022/10/15 09:24:20;;;;;;;17.02;11.30;;;;;;;;;;8363658;28;20083;-89
2022/10/15 09:28:27;;;;;;;16.48;11.25;;;;;;;;;;8362900;28;20048;-89
2022/10/15 09:32:35;;;;;;;19.10;11.88;;;;;;;;;;8362626;28;20119;-89
2022/10/15 09:36:43;;;;;;;13.95;9.68;;;;;;;;;;8362263;28;20053;-88
2022/10/15 09:40:59;;;;;;;34.58;20.20;;;;;;;;;;8362309;28;20123;-89
2022/10/15 09:45:06;;;;;;;27.08;20.13;;;;;;;;;;8357232;28;20052;-89
2022/10/15 09:49:17;;;;;;;20.15;10.93;;;;;;;;;;8357239;28;20455;-88
2022/10/15 09:53:33;;;;;;;20.45;14.55;;;;;;;;;;8355714;28;20052;-89
2022/10/15 09:57:39;;;;;;;20.63;16.27;;;;;;;;;;8363007;28;20055;-88
2022/10/15 10:02:01;;;;;;;17.15;11.63;;;;;;;;;;8358405;28;20064;-88
2022/10/15 10:06:07;;;;;;;17.45;11.48;;;;;;;;;;8357339;28;20412;-89
2022/10/15 10:10:24;;;;;;;21.42;12.48;;;;;;;;;;8357297;28;20045;-88
2022/10/15 10:14:34;;;;;;;19.30;12.15;;;;;;;;;;8357880;28;20080;-89
2022/10/15 10:18:38;;;;;;;16.40;11.80;;;;;;;;;;8358587;28;20050;-90
2022/10/15 10:22:51;;;;;;;16.35;9.68;;;;;;;;;;8359085;28;20049;-88
2022/10/15 10:26:55;;;;;;;18.65;11.80;;;;;;;;;;8358086;28;20069;-88
2022/10/15 10:36:23;;;;;;;20.55;13.15;;;;;;;;;;8372707;28;20080;-88
2022/10/15 10:40:32;;;;;;;17.75;11.00;;;;;;;;;;8373463;28;20049;-89
2022/10/15 10:44:38;;;;;;;17.67;10.50;;;;;;;;;;8381787;28;20492;-88
2022/10/15 10:48:42;;;;;;;15.57;11.38;;;;;;;;;;8384048;28;20055;-89
2022/10/15 10:52:46;;;;;;;17.45;10.90;;;;;;;;;;8384931;28;20040;-89
2022/10/15 10:56:49;;;;;;;19.92;11.30;;;;;;;;;;8393109;28;20442;-90
2022/10/15 11:00:54;;;;;;;17.45;11.50;;;;;;;;;;8380174;28;20054;-88
2022/10/15 11:04:56;;;;;;;17.77;11.20;;;;;;;;;;8381037;28;20064;-88
2022/10/15 11:09:13;;;;;;;16.58;10.32;;;;;;;;;;8391615;28;20110;-89
2022/10/15 11:13:33;;;;;;;29.73;16.80;;;;;;;;;;8388976;28;20408;-89
2022/10/15 11:17:47;;;;;;;105.32;42.35;;;;;;;;;;8386313;28;20097;-87
2022/10/15 11:22:02;;;;;;;24.52;14.52;;;;;;;;;;8380501;28;20044;-88
2022/10/15 11:26:24;;;;;;;26.17;15.50;;;;;;;;;;8376047;28;20464;-87
2022/10/15 11:30:41;;;;;;;19.25;11.80;;;;;;;;;;8366842;28;20456;-88
2022/10/15 11:34:58;;;;;;;21.80;14.20;;;;;;;;;;8381565;28;20078;-87
2022/10/15 11:39:12;;;;;;;17.60;11.80;;;;;;;;;;8389237;28;20560;-88
2022/10/15 11:43:34;;;;;;;19.33;12.00;;;;;;;;;;8375297;28;20079;-88
2022/10/15 11:47:48;;;;;;;17.27;12.18;;;;;;;;;;8392374;28;20049;-87
2022/10/15 11:52:05;;;;;;;17.23;11.38;;;;;;;;;;8373414;28;20045;-88
2022/10/15 11:56:14;;;;;;;21.17;12.32;;;;;;;;;;8384285;28;20048;-88
2022/10/15 12:00:31;;;;;;;16.85;9.45;;;;;;;;;;8377665;28;20415;-89
2022/10/15 12:04:38;;;;;;;19.30;11.85;;;;;;;;;;8376306;28;20143;-88
2022/10/15 12:08:43;;;;;;;18.75;12.00;;;;;;;;;;8376816;28;20479;-88
2022/10/15 12:12:53;;;;;;;22.48;13.20;;;;;;;;;;8381777;28;20066;-89
2022/10/15 12:17:05;;;;;;;23.23;15.07;;;;;;;;;;8389771;28;20036;-89
2022/10/15 12:21:34;;;;;;;18.75;12.30;;;;;;;;;;8378257;28;20052;-89
2022/10/15 12:25:47;;;;;;;17.20;12.05;;;;;;;;;;8380538;28;20044;-88
2022/10/15 12:29:52;;;;;;;20.75;11.77;;;;;;;;;;8392585;28;20052;-88
2022/10/15 12:33:58;;;;;;;18.60;12.23;;;;;;;;;;8370335;28;20063;-89
2022/10/15 12:38:12;;;;;;;17.25;11.23;;;;;;;;;;8387675;28;20045;-88
2022/10/15 12:42:26;;;;;;;14.65;8.82;;;;;;;;;;8395111;28;20121;-89
2022/10/15 12:46:37;;;;;;;16.48;10.20;;;;;;;;;;8365144;28;20068;-88
2022/10/15 12:50:41;;;;;;;16.88;10.50;;;;;;;;;;8376050;28;20098;-87
2022/10/15 12:54:45;;;;;;;17.95;11.48;;;;;;;;;;8370493;28;20052;-87
2022/10/15 12:58:49;;;;;;;16.75;11.55;;;;;;;;;;8387942;28;20049;-87
2022/10/15 13:02:53;;;;;;;18.45;11.50;;;;;;;;;;8375622;28;20085;-88
2022/10/15 13:07:03;;;;;;;19.20;12.48;;;;;;;;;;8371507;28;20047;-89
2022/10/15 13:11:18;;;;;;;18.92;12.60;;;;;;;;;;8374535;28;20125;-89
2022/10/15 13:15:23;;;;;;;17.70;11.15;;;;;;;;;;8371348;28;20052;-89
2022/10/15 13:19:28;;;;;;;16.17;9.43;;;;;;;;;;8382559;28;20054;-88
2022/10/15 13:23:34;;;;;;;13.38;8.88;;;;;;;;;;8388736;28;20044;-88
2022/10/15 13:27:37;;;;;;;22.30;13.32;;;;;;;;;;8358637;28;20056;-89
2022/10/15 13:31:43;;;;;;;20.27;12.50;;;;;;;;;;8384747;28;20064;-89
2022/10/15 13:35:46;;;;;;;19.10;12.07;;;;;;;;;;8360343;28;20086;-89
2022/10/15 13:39:51;;;;;;;20.75;12.95;;;;;;;;;;8386487;28;20049;-89
2022/10/15 13:43:57;;;;;;;20.77;12.95;;;;;;;;;;8375754;28;20480;-88
2022/10/15 13:48:00;;;;;;;21.67;13.05;;;;;;;;;;8384771;28;20542;-88
2022/10/15 13:52:03;;;;;;;17.73;12.55;;;;;;;;;;8373387;28;20115;-88
2022/10/15 13:56:21;;;;;;;22.25;12.45;;;;;;;;;;8382417;28;20048;-88
2022/10/15 14:00:27;;;;;;;22.83;13.65;;;;;;;;;;8375772;28;20094;-88
2022/10/15 14:04:31;;;;;;;22.63;13.18;;;;;;;;;;8382939;28;20446;-89
2022/10/15 14:08:36;;;;;;;19.20;13.05;;;;;;;;;;8372342;28;20075;-88
2022/10/15 14:12:39;;;;;;;20.73;13.38;;;;;;;;;;8388164;28;20057;-87
2022/10/15 14:16:47;;;;;;;19.45;13.15;;;;;;;;;;8387717;28;20111;-88
2022/10/15 14:20:50;;;;;;;21.65;13.45;;;;;;;;;;8389126;28;20052;-88
2022/10/15 14:24:54;;;;;;;20.45;13.57;;;;;;;;;;8390906;28;20051;-89
2022/10/15 14:28:58;;;;;;;19.98;13.70;;;;;;;;;;8388048;28;20045;-88
2022/10/15 14:33:01;;;;;;;21.90;14.00;;;;;;;;;;8391069;28;20084;-88
2022/10/15 14:37:39;;;;;;;21.60;14.00;;;;;;;;;;8384721;28;20503;-88
2022/10/15 14:41:55;;;;;;;21.42;13.80;;;;;;;;;;8381034;28;20052;-88
2022/10/15 14:46:00;;;;;;;20.83;13.52;;;;;;;;;;8386694;28;20456;-88
2022/10/15 14:50:03;;;;;;;52.53;31.20;;;;;;;;;;8376026;28;20040;-88
2022/10/15 14:54:10;;;;;;;34.85;24.60;;;;;;;;;;8375253;28;20052;-89
2022/10/15 14:58:18;;;;;;;21.92;15.90;;;;;;;;;;8377433;28;20056;-89
2022/10/15 15:02:22;;;;;;;20.65;14.60;;;;;;;;;;8380299;28;20052;-89
2022/10/15 15:06:25;;;;;;;41.28;25.42;;;;;;;;;;8382525;28;20085;-89
2022/10/15 15:10:29;;;;;;;51.38;32.28;;;;;;;;;;8380948;28;20066;-88
2022/10/15 15:14:31;;;;;;;31.08;20.65;;;;;;;;;;8392958;28;20072;-89
2022/10/15 15:18:34;;;;;;;25.35;16.13;;;;;;;;;;8373568;28;20424;-88
2022/10/15 15:22:37;;;;;;;23.80;15.40;;;;;;;;;;8387170;28;20051;-88
2022/10/15 15:26:42;;;;;;;31.05;21.13;;;;;;;;;;8384126;28;20044;-88
2022/10/15 15:30:46;;;;;;;39.67;27.50;;;;;;;;;;8384943;28;20041;-88
2022/10/15 15:34:49;;;;;;;33.97;22.52;;;;;;;;;;8373607;28;20500;-87
2022/10/15 15:38:57;;;;;;;35.25;25.00;;;;;;;;;;8382889;28;20590;-88
2022/10/15 15:43:01;;;;;;;29.65;20.67;;;;;;;;;;8378724;28;20083;-88
2022/10/15 15:47:03;;;;;;;29.90;17.83;;;;;;;;;;8367456;28;20049;-88
2022/10/15 15:51:13;;;;;;;71.43;47.92;;;;;;;;;;8401590;28;20433;-88
2022/10/15 15:55:15;;;;;;;34.45;23.88;;;;;;;;;;8390047;28;20052;-88
2022/10/15 15:59:19;;;;;;;28.75;17.40;;;;;;;;;;8396486;28;20579;-88
2022/10/15 16:03:22;;;;;;;31.70;19.75;;;;;;;;;;8398678;28;20052;-88
2022/10/15 16:07:24;;;;;;;31.00;20.17;;;;;;;;;;8397033;28;20045;-88
2022/10/15 16:11:27;;;;;;;34.88;17.40;;;;;;;;;;8398163;28;20050;-87
2022/10/15 16:15:31;;;;;;;75.50;37.78;;;;;;;;;;8397926;28;20048;-87
2022/10/15 16:19:33;;;;;;;25.70;13.23;;;;;;;;;;8397975;28;20071;-88
2022/10/15 16:23:36;;;;;;;26.33;17.42;;;;;;;;;;8397432;28;20515;-88
2022/10/15 16:27:38;;;;;;;25.70;15.85;;;;;;;;;;8397016;28;20075;-88
2022/10/15 16:31:42;;;;;;;27.85;18.98;;;;;;;;;;8397259;28;20126;-88
2022/10/15 16:35:50;;;;;;;26.05;16.17;;;;;;;;;;8397190;28;20071;-88
2022/10/15 16:39:53;;;;;;;27.00;15.77;;;;;;;;;;8379451;28;20036;-88
2022/10/15 16:43:55;;;;;;;25.83;16.70;;;;;;;;;;8397298;28;20672;-88
2022/10/15 16:47:59;;;;;;;27.00;16.25;;;;;;;;;;8396888;28;20074;-88
2022/10/15 16:52:01;;;;;;;24.27;14.05;;;;;;;;;;8396846;28;20040;-88
2022/10/15 16:56:06;;;;;;;24.55;13.30;;;;;;;;;;8396653;28;20151;-88
2022/10/15 17:00:10;;;;;;;30.00;19.85;;;;;;;;;;8396356;28;20083;-87
2022/10/15 17:04:14;;;;;;;28.20;16.90;;;;;;;;;;8396466;28;20054;-87
2022/10/15 17:08:16;;;;;;;36.30;18.27;;;;;;;;;;8396266;28;20044;-88
2022/10/15 17:12:19;;;;;;;24.48;13.18;;;;;;;;;;8396318;28;20040;-88
2022/10/15 17:16:25;;;;;;;28.92;15.20;;;;;;;;;;8396103;28;20055;-87
2022/10/15 17:20:30;;;;;;;27.17;13.13;;;;;;;;;;8396038;28;20476;-88
2022/10/15 17:24:32;;;;;;;19.90;10.02;;;;;;;;;;8396013;28;20052;-88
2022/10/15 17:28:35;;;;;;;24.05;12.32;;;;;;;;;;8395969;28;20534;-88
2022/10/15 17:32:38;;;;;;;23.30;13.88;;;;;;;;;;8395550;28;20503;-88
2022/10/15 17:36:45;;;;;;;26.30;13.20;;;;;;;;;;8395693;28;20049;-87
2022/10/15 17:40:48;;;;;;;31.20;15.40;;;;;;;;;;8394683;28;20044;-87
2022/10/15 17:44:51;;;;;;;21.15;12.32;;;;;;;;;;8395904;28;20115;-88
2022/10/15 17:48:54;;;;;;;22.42;13.15;;;;;;;;;;8395824;28;20072;-87
2022/10/15 17:53:00;;;;;;;21.52;11.52;;;;;;;;;;8395206;28;20075;-87
2022/10/15 17:57:02;;;;;;;24.33;12.73;;;;;;;;;;8395447;28;20040;-87
2022/10/15 18:01:05;;;;;;;22.20;12.48;;;;;;;;;;8390768;28;20048;-88
2022/10/15 18:05:07;;;;;;;19.35;11.98;;;;;;;;;;8395115;28;20056;-88
2022/10/15 18:09:12;;;;;;;24.33;12.50;;;;;;;;;;8395161;28;20048;-88
2022/10/15 18:13:14;;;;;;;20.77;11.60;;;;;;;;;;8384746;28;20123;-88
2022/10/15 18:17:18;;;;;;;20.17;11.48;;;;;;;;;;8366971;28;20119;-88
2022/10/15 18:21:23;;;;;;;22.02;11.70;;;;;;;;;;8390461;28;20487;-89
2022/10/15 18:25:29;;;;;;;25.02;11.63;;;;;;;;;;8386997;28;20053;-88
2022/10/15 18:29:32;;;;;;;24.55;12.85;;;;;;;;;;8390232;28;20045;-88
2022/10/15 18:33:38;;;;;;;21.52;11.27;;;;;;;;;;8394104;28;20056;-88
2022/10/15 18:37:41;;;;;;;25.90;12.77;;;;;;;;;;8394395;28;20068;-89
2022/10/15 18:41:47;;;;;;;25.80;12.63;;;;;;;;;;8376691;28;20078;-88
2022/10/15 18:45:51;;;;;;;20.27;11.98;;;;;;;;;;8385629;28;20044;-88
2022/10/15 18:49:54;;;;;;;24.05;11.80;;;;;;;;;;8385712;28;20052;-88
2022/10/15 18:53:56;;;;;;;25.58;12.38;;;;;;;;;;8400527;28;20484;-88
2022/10/15 18:58:01;;;;;;;26.60;13.77;;;;;;;;;;8400489;28;20052;-88
2022/10/15 19:02:03;;;;;;;19.77;11.50;;;;;;;;;;8400380;28;20476;-88
2022/10/15 19:06:07;;;;;;;27.05;13.45;;;;;;;;;;8382602;28;20127;-88
2022/10/15 19:10:09;;;;;;;24.50;12.50;;;;;;;;;;8400100;28;20048;-87
2022/10/15 19:14:15;;;;;;;27.92;12.98;;;;;;;;;;8399951;28;20051;-87
2022/10/15 19:18:17;;;;;;;22.77;11.70;;;;;;;;;;8399813;28;20131;-88
2022/10/15 19:22:20;;;;;;;31.05;13.98;;;;;;;;;;8399658;28;20051;-88
2022/10/15 19:26:23;;;;;;;26.10;13.35;;;;;;;;;;8399667;28;20072;-88
2022/10/15 19:30:28;;;;;;;24.90;12.35;;;;;;;;;;8399661;28;20044;-88
2022/10/15 19:34:30;;;;;;;24.45;14.80;;;;;;;;;;8399127;28;20104;-87
2022/10/15 19:38:34;;;;;;;31.95;15.93;;;;;;;;;;8399253;28;20674;-88
2022/10/15 19:42:36;;;;;;;26.80;15.18;;;;;;;;;;8398965;28;20123;-88
2022/10/15 19:46:41;;;;;;;27.42;15.13;;;;;;;;;;8399257;28;20041;-88
2022/10/15 19:50:45;;;;;;;33.90;18.65;;;;;;;;;;8398850;28;20056;-88
2022/10/15 19:54:48;;;;;;;28.38;13.98;;;;;;;;;;8398447;28;20049;-88
2022/10/15 19:58:54;;;;;;;26.30;12.15;;;;;;;;;;8398585;28;20479;-87
2022/10/15 20:02:59;;;;;;;22.77;12.15;;;;;;;;;;8397640;28;20036;-87
2022/10/15 20:07:01;;;;;;;22.40;12.45;;;;;;;;;;8398446;28;20448;-87
2022/10/15 20:11:06;;;;;;;29.08;14.20;;;;;;;;;;8398222;28;20056;-88
2022/10/15 20:15:09;;;;;;;24.80;12.50;;;;;;;;;;8398198;28;20177;-88
2022/10/15 20:19:13;;;;;;;25.90;13.63;;;;;;;;;;8397804;28;20045;-88
2022/10/15 20:23:17;;;;;;;25.38;13.25;;;;;;;;;;8397784;28;20048;-88
2022/10/15 20:27:20;;;;;;;33.67;16.80;;;;;;;;;;8397474;28;20141;-88
2022/10/15 20:31:27;;;;;;;32.88;16.17;;;;;;;;;;8397500;28;20451;-88
2022/10/15 20:35:32;;;;;;;49.92;23.45;;;;;;;;;;8397581;28;20102;-88
2022/10/15 20:39:35;;;;;;;20.80;11.77;;;;;;;;;;8397081;28;20056;-88
2022/10/15 20:43:38;;;;;;;28.13;13.13;;;;;;;;;;8397098;28;20047;-89
2022/10/15 20:47:43;;;;;;;21.08;11.88;;;;;;;;;;8396929;28;20044;-87
2022/10/15 20:51:49;;;;;;;25.60;12.77;;;;;;;;;;8383371;28;20453;-88
2022/10/15 20:55:51;;;;;;;28.48;12.90;;;;;;;;;;8398300;28;20047;-88
2022/10/15 20:59:54;;;;;;;27.05;12.55;;;;;;;;;;8396373;28;20707;-88
2022/10/15 21:03:56;;;;;;;22.00;11.68;;;;;;;;;;8396784;28;20411;-87
2022/10/15 21:08:01;;;;;;;22.77;11.98;;;;;;;;;;8396311;28;20078;-88
2022/10/15 21:12:04;;;;;;;25.30;12.07;;;;;;;;;;8395894;28;20064;-88
2022/10/15 21:16:08;;;;;;;21.35;11.23;;;;;;;;;;8396041;28;20049;-88
2022/10/15 21:20:10;;;;;;;20.42;11.57;;;;;;;;;;8395799;28;20045;-88
2022/10/15 21:24:14;;;;;;;22.67;12.27;;;;;;;;;;8378573;28;20389;-88
2022/10/15 21:28:17;;;;;;;20.58;11.20;;;;;;;;;;8395939;28;20056;-88
2022/10/15 21:32:20;;;;;;;19.65;11.38;;;;;;;;;;8395553;28;20118;-88
2022/10/15 21:36:25;;;;;;;22.70;11.85;;;;;;;;;;8395492;28;20045;-88
2022/10/15 21:40:29;;;;;;;21.75;12.10;;;;;;;;;;8395433;28;20119;-88
2022/10/15 21:44:32;;;;;;;19.27;11.18;;;;;;;;;;8395524;28;20059;-88
2022/10/15 21:48:36;;;;;;;23.30;12.00;;;;;;;;;;8395576;28;20148;-87
2022/10/15 21:52:38;;;;;;;21.73;10.60;;;;;;;;;;8395985;28;20484;-88
2022/10/15 21:56:42;;;;;;;20.67;11.57;;;;;;;;;;8395323;28;20052;-88
2022/10/15 22:00:44;;;;;;;25.17;14.40;;;;;;;;;;8395436;28;20041;-87
2022/10/15 22:04:47;;;;;;;23.60;13.02;;;;;;;;;;8395252;28;20626;-88
2022/10/15 22:08:50;;;;;;;19.85;11.55;;;;;;;;;;8395238;28;20051;-87
2022/10/15 22:12:54;;;;;;;20.33;11.80;;;;;;;;;;8393522;28;20492;-88
2022/10/15 22:16:56;;;;;;;25.15;12.48;;;;;;;;;;8393293;28;20095;-88
2022/10/15 22:21:09;;;;;;;23.10;11.55;;;;;;;;;;8395005;28;20473;-88
2022/10/15 22:25:11;;;;;;;19.52;11.73;;;;;;;;;;8397131;28;20377;-88
2022/10/15 22:29:19;;;;;;;18.75;11.77;;;;;;;;;;8399337;28;20178;-88
2022/10/15 22:33:21;;;;;;;20.20;10.30;;;;;;;;;;8398061;28;20053;-88
2022/10/15 22:37:24;;;;;;;17.05;10.25;;;;;;;;;;8395496;28;20052;-88
2022/10/15 22:41:28;;;;;;;19.85;11.40;;;;;;;;;;8401170;28;20409;-88
2022/10/15 22:45:32;;;;;;;23.75;11.05;;;;;;;;;;8400940;28;20049;-88
2022/10/15 22:49:34;;;;;;;22.45;12.38;;;;;;;;;;8400659;28;20097;-88
2022/10/15 22:53:37;;;;;;;17.38;10.88;;;;;;;;;;8400481;28;20044;-89
2022/10/15 22:57:39;;;;;;;18.75;10.48;;;;;;;;;;8400760;28;20063;-88
2022/10/15 23:01:45;;;;;;;16.02;10.25;;;;;;;;;;8376553;28;20051;-89
2022/10/15 23:05:52;;;;;;;18.95;11.65;;;;;;;;;;8385845;28;20409;-88
2022/10/15 23:09:55;;;;;;;21.95;11.30;;;;;;;;;;8373891;28;20128;-89
2022/10/15 23:13:59;;;;;;;18.30;11.65;;;;;;;;;;8385888;28;20049;-88
2022/10/15 23:18:03;;;;;;;20.48;10.85;;;;;;;;;;8390276;28;20115;-89
2022/10/15 23:22:05;;;;;;;17.30;11.15;;;;;;;;;;8392347;28;20045;-90
2022/10/15 23:26:10;;;;;;;22.75;11.30;;;;;;;;;;8392071;28;20147;-90
2022/10/15 23:30:13;;;;;;;20.95;11.38;;;;;;;;;;8395311;28;20044;-88
2022/10/15 23:34:20;;;;;;;21.55;11.23;;;;;;;;;;8392577;28;20090;-89
2022/10/15 23:38:23;;;;;;;20.92;11.23;;;;;;;;;;8370649;28;20056;-87
2022/10/15 23:42:26;;;;;;;16.48;11.05;;;;;;;;;;8395089;28;20135;-89
2022/10/15 23:46:28;;;;;;;20.45;11.35;;;;;;;;;;8396069;28;20043;-88